sensor_id;sensor_type;location;lat;lon;timestamp;temperature;humidity
22984;DHT22;11658;48.908;9.140;2023-05-07T05:02:06;17.90;99.90
22984;DHT22;11658;48.908;9.140;2023-05-07T05:04:32;21.40;99.90
22984;DHT22;11658;48.908;9.140;2023-05-07T05:06:58;18.30;99.90
22984;DHT22;11658;48.908;9.140;2023-05-07T05:09:23;17.60;99.90
22984;DHT22;11658;48.908;9.140;2023-05-07T05:11:49;17.10;99.90
22984;DHT22;11658;48.908;9.140;2023-05-07T05:14:15;16.70;99.90
22984;DHT22;11658;48.908;9.140;2023-05-07T05:16:40;16.10;99.90
22984;DHT22;11658;48.908;9.140;2023-05-07T05:19:06;15.50;99.90
22984;DHT22;11658;48.908;9.140;2023-05-07T05:21:32;15.00;99.90
22984;DHT22;11658;48.908;9.140;2023-05-07T05:23:58;14.70;99.90
22984;DHT22;11658;48.908;9.140;2023-05-07T05:26:24;14.40;99.90
22984;DHT22;11658;48.908;9.140;2023-05-07T05:28:49;14.20;99.90
22984;DHT22;11658;48.908;9.140;2023-05-07T05:31:16;14.40;99.90
22984;DHT22;11658;48.908;9.140;2023-05-07T05:33:41;15.90;99.90
22984;DHT22;11658;48.908;9.140;2023-05-07T05:36:09;17.00;99.90
22984;DHT22;11658;48.908;9.140;2023-05-07T05:38:35;17.20;99.90
22984;DHT22;11658;48.908;9.140;2023-05-07T05:41:01;17.10;99.90
22984;DHT22;11658;48.908;9.140;2023-05-07T05:43:26;16.80;99.90
22984;DHT22;11658;48.908;9.140;2023-05-07T05:45:52;16.40;99.90
22984;DHT22;11658;48.908;9.140;2023-05-07T05:48:17;16.10;99.90
22984;DHT22;11658;48.908;9.140;2023-05-07T05:50:43;16.00;99.90
22984;DHT22;11658;48.908;9.140;2023-05-07T05:53:09;16.10;99.90
22984;DHT22;11658;48.908;9.140;2023-05-07T05:55:34;16.10;99.90
22984;DHT22;11658;48.908;9.140;2023-05-07T05:58:00;16.30;99.90
22984;DHT22;11658;48.908;9.140;2023-05-07T06:00:27;16.80;99.90
22984;DHT22;11658;48.908;9.140;2023-05-07T06:02:52;17.80;99.90
22984;DHT22;11658;48.908;9.140;2023-05-07T06:05:18;18.60;99.90
22984;DHT22;11658;48.908;9.140;2023-05-07T06:07:44;19.40;99.90
22984;DHT22;11658;48.908;9.140;2023-05-07T06:10:09;20.20;99.90
22984;DHT22;11658;48.908;9.140;2023-05-07T06:12:35;20.60;99.90
22984;DHT22;11658;48.908;9.140;2023-05-07T06:15:01;20.40;99.90
22984;DHT22;11658;48.908;9.140;2023-05-07T06:17:27;20.30;99.90
22984;DHT22;11658;48.908;9.140;2023-05-07T06:19:52;20.10;99.90
22984;DHT22;11658;48.908;9.140;2023-05-07T06:22:18;19.30;99.90
22984;DHT22;11658;48.908;9.140;2023-05-07T06:24:44;18.60;99.90
22984;DHT22;11658;48.908;9.140;2023-05-07T06:27:09;18.10;99.90
22984;DHT22;11658;48.908;9.140;2023-05-07T06:29:35;17.70;99.90
22984;DHT22;11658;48.908;9.140;2023-05-07T06:32:11;17.30;99.90
22984;DHT22;11658;48.908;9.140;2023-05-07T06:34:37;17.40;99.90
22984;DHT22;11658;48.908;9.140;2023-05-07T06:37:03;17.50;99.90
22984;DHT22;11658;48.908;9.140;2023-05-07T06:39:29;17.60;99.90
22984;DHT22;11658;48.908;9.140;2023-05-07T06:41:54;17.40;99.90
22984;DHT22;11658;48.908;9.140;2023-05-07T06:44:20;17.40;99.90
22984;DHT22;11658;48.908;9.140;2023-05-07T06:46:46;17.40;99.90
22984;DHT22;11658;48.908;9.140;2023-05-07T06:49:15;17.50;99.90
22984;DHT22;11658;48.908;9.140;2023-05-07T06:51:40;17.70;99.90
22984;DHT22;11658;48.908;9.140;2023-05-07T06:54:06;17.60;99.90
22984;DHT22;11658;48.908;9.140;2023-05-07T06:56:32;17.60;99.90
22984;DHT22;11658;48.908;9.140;2023-05-07T06:58:59;17.50;99.90
22984;DHT22;11658;48.908;9.140;2023-05-07T07:01:25;17.70;99.90
22984;DHT22;11658;48.908;9.140;2023-05-07T07:03:50;17.90;99.90
22984;DHT22;11658;48.908;9.140;2023-05-07T07:06:16;18.00;99.90
22984;DHT22;11658;48.908;9.140;2023-05-07T07:08:42;18.00;99.90
22984;DHT22;11658;48.908;9.140;2023-05-07T07:11:09;18.20;99.90
22984;DHT22;11658;48.908;9.140;2023-05-07T07:13:35;18.40;99.90
22984;DHT22;11658;48.908;9.140;2023-05-07T07:16:01;18.80;99.90
22984;DHT22;11658;48.908;9.140;2023-05-07T07:18:27;19.10;99.90
22984;DHT22;11658;48.908;9.140;2023-05-07T07:20:52;19.30;99.90
22984;DHT22;11658;48.908;9.140;2023-05-07T07:23:18;19.40;99.90
22984;DHT22;11658;48.908;9.140;2023-05-07T07:25:44;19.30;99.90
22984;DHT22;11658;48.908;9.140;2023-05-07T07:28:10;19.40;99.90
22984;DHT22;11658;48.908;9.140;2023-05-07T07:30:36;19.30;99.90
22984;DHT22;11658;48.908;9.140;2023-05-07T07:33:02;19.50;99.90
22984;DHT22;11658;48.908;9.140;2023-05-07T07:35:32;19.70;99.90
22984;DHT22;11658;48.908;9.140;2023-05-07T07:37:58;19.90;99.90
22984;DHT22;11658;48.908;9.140;2023-05-07T07:40:24;20.00;99.90
22984;DHT22;11658;48.908;9.140;2023-05-07T07:42:50;20.00;99.90
22984;DHT22;11658;48.908;9.140;2023-05-07T07:45:16;19.80;99.90
22984;DHT22;11658;48.908;9.140;2023-05-07T07:47:42;19.70;99.90
22984;DHT22;11658;48.908;9.140;2023-05-07T07:50:08;19.80;99.90
22984;DHT22;11658;48.908;9.140;2023-05-07T07:52:34;19.90;99.90
22984;DHT22;11658;48.908;9.140;2023-05-07T07:55:00;19.80;99.90
22984;DHT22;11658;48.908;9.140;2023-05-07T07:57:25;19.80;99.90
22984;DHT22;11658;48.908;9.140;2023-05-07T07:59:51;19.60;99.90
22984;DHT22;11658;48.908;9.140;2023-05-07T08:02:17;19.10;99.90
22984;DHT22;11658;48.908;9.140;2023-05-07T08:04:42;19.40;99.90
22984;DHT22;11658;48.908;9.140;2023-05-07T08:07:11;19.60;99.90
22984;DHT22;11658;48.908;9.140;2023-05-07T08:09:38;19.70;99.90
22984;DHT22;11658;48.908;9.140;2023-05-07T08:12:07;19.70;99.90
22984;DHT22;11658;48.908;9.140;2023-05-07T08:14:33;19.70;99.90
22984;DHT22;11658;48.908;9.140;2023-05-07T08:16:59;19.80;99.90
22984;DHT22;11658;48.908;9.140;2023-05-07T08:19:25;19.80;99.90
22984;DHT22;11658;48.908;9.140;2023-05-07T08:21:50;19.80;99.90
22984;DHT22;11658;48.908;9.140;2023-05-07T08:24:17;19.80;99.90
22984;DHT22;11658;48.908;9.140;2023-05-07T08:26:43;19.90;99.90
22984;DHT22;11658;48.908;9.140;2023-05-07T08:29:09;20.10;99.90
22984;DHT22;11658;48.908;9.140;2023-05-07T08:31:35;20.40;99.90
22984;DHT22;11658;48.908;9.140;2023-05-07T08:34:00;20.50;99.90
22984;DHT22;11658;48.908;9.140;2023-05-07T08:36:26;20.50;99.90
22984;DHT22;11658;48.908;9.140;2023-05-07T08:38:52;20.60;99.90
22984;DHT22;11658;48.908;9.140;2023-05-07T08:41:20;20.70;99.90
22984;DHT22;11658;48.908;9.140;2023-05-07T08:43:50;20.80;99.90
22984;DHT22;11658;48.908;9.140;2023-05-07T08:46:21;20.90;99.90
22984;DHT22;11658;48.908;9.140;2023-05-07T08:48:51;21.00;99.90
22984;DHT22;11658;48.908;9.140;2023-05-07T08:51:21;21.30;99.90
22984;DHT22;11658;48.908;9.140;2023-05-07T08:53:48;21.30;99.90
22984;DHT22;11658;48.908;9.140;2023-05-07T08:56:14;21.40;99.90
22984;DHT22;11658;48.908;9.140;2023-05-07T08:58:42;21.60;99.90
22984;DHT22;11658;48.908;9.140;2023-05-07T09:01:09;21.90;99.90
22984;DHT22;11658;48.908;9.140;2023-05-07T09:03:38;21.80;99.90
22984;DHT22;11658;48.908;9.140;2023-05-07T09:06:04;21.90;99.90
22984;DHT22;11658;48.908;9.140;2023-05-07T09:08:32;22.10;99.90
22984;DHT22;11658;48.908;9.140;2023-05-07T09:10:58;22.40;99.90
22984;DHT22;11658;48.908;9.140;2023-05-07T09:13:24;22.70;99.90
22984;DHT22;11658;48.908;9.140;2023-05-07T09:15:50;22.90;99.90
22984;DHT22;11658;48.908;9.140;2023-05-07T09:18:15;23.00;99.90
22984;DHT22;11658;48.908;9.140;2023-05-07T09:20:41;23.10;99.90
22984;DHT22;11658;48.908;9.140;2023-05-07T09:23:07;22.80;99.90
22984;DHT22;11658;48.908;9.140;2023-05-07T09:25:34;23.00;99.90
22984;DHT22;11658;48.908;9.140;2023-05-07T09:28:01;23.10;99.90
22984;DHT22;11658;48.908;9.140;2023-05-07T09:30:28;23.10;99.90
22984;DHT22;11658;48.908;9.140;2023-05-07T09:32:56;22.80;99.90
22984;DHT22;11658;48.908;9.140;2023-05-07T09:35:22;22.60;99.90
22984;DHT22;11658;48.908;9.140;2023-05-07T09:37:52;22.40;99.90
22984;DHT22;11658;48.908;9.140;2023-05-07T09:40:29;22.20;99.90
22984;DHT22;11658;48.908;9.140;2023-05-07T09:42:55;22.20;99.90
22984;DHT22;11658;48.908;9.140;2023-05-07T09:45:27;22.30;99.90
22984;DHT22;11658;48.908;9.140;2023-05-07T09:47:55;22.40;99.90
22984;DHT22;11658;48.908;9.140;2023-05-07T09:50:27;22.60;99.90
22984;DHT22;11658;48.908;9.140;2023-05-07T09:52:57;22.60;99.90
22984;DHT22;11658;48.908;9.140;2023-05-07T09:55:23;22.50;99.90
22984;DHT22;11658;48.908;9.140;2023-05-07T09:57:52;22.20;99.90
22984;DHT22;11658;48.908;9.140;2023-05-07T10:00:20;22.20;99.90
22984;DHT22;11658;48.908;9.140;2023-05-07T10:02:48;22.10;99.90
22984;DHT22;11658;48.908;9.140;2023-05-07T10:05:16;22.10;99.90
22984;DHT22;11658;48.908;9.140;2023-05-07T10:07:42;22.30;99.90
22984;DHT22;11658;48.908;9.140;2023-05-07T10:10:09;22.50;99.90
22984;DHT22;11658;48.908;9.140;2023-05-07T10:12:35;22.50;99.90
22984;DHT22;11658;48.908;9.140;2023-05-07T10:15:08;22.50;99.90
22984;DHT22;11658;48.908;9.140;2023-05-07T10:17:38;22.70;99.90
22984;DHT22;11658;48.908;9.140;2023-05-07T10:20:08;22.50;99.90
22984;DHT22;11658;48.908;9.140;2023-05-07T10:22:45;22.60;99.90
22984;DHT22;11658;48.908;9.140;2023-05-07T10:25:22;22.50;99.90
22984;DHT22;11658;48.908;9.140;2023-05-07T10:27:51;22.60;99.90
22984;DHT22;11658;48.908;9.140;2023-05-07T10:32:56;22.60;99.90
22984;DHT22;11658;48.908;9.140;2023-05-07T10:35:32;22.70;99.90
22984;DHT22;11658;48.908;9.140;2023-05-07T10:38:02;22.80;99.90
22984;DHT22;11658;48.908;9.140;2023-05-07T10:40:28;23.10;99.90
22984;DHT22;11658;48.908;9.140;2023-05-07T10:42:58;23.30;99.90
22984;DHT22;11658;48.908;9.140;2023-05-07T10:45:28;23.50;99.90
22984;DHT22;11658;48.908;9.140;2023-05-07T10:50:37;23.30;99.90
22984;DHT22;11658;48.908;9.140;2023-05-07T10:55:48;23.40;99.90
22984;DHT22;11658;48.908;9.140;2023-05-07T10:58:27;23.40;99.90
22984;DHT22;11658;48.908;9.140;2023-05-07T11:00:57;23.50;99.90
22984;DHT22;11658;48.908;9.140;2023-05-07T11:03:24;23.50;99.90
22984;DHT22;11658;48.908;9.140;2023-05-07T11:06:14;23.20;99.90
22984;DHT22;11658;48.908;9.140;2023-05-07T11:11:17;23.10;99.90
22984;DHT22;11658;48.908;9.140;2023-05-07T11:13:49;23.00;99.90
22984;DHT22;11658;48.908;9.140;2023-05-07T11:16:23;22.90;99.90
22984;DHT22;11658;48.908;9.140;2023-05-07T11:18:53;23.00;99.90
22984;DHT22;11658;48.908;9.140;2023-05-07T11:24:02;23.10;99.90
22984;DHT22;11658;48.908;9.140;2023-05-07T11:26:31;23.10;99.90
22984;DHT22;11658;48.908;9.140;2023-05-07T11:28:57;22.90;99.90
22984;DHT22;11658;48.908;9.140;2023-05-07T11:31:26;22.80;99.90
22984;DHT22;11658;48.908;9.140;2023-05-07T11:33:54;22.80;99.90
22984;DHT22;11658;48.908;9.140;2023-05-07T11:36:21;22.80;99.90
22984;DHT22;11658;48.908;9.140;2023-05-07T11:38:47;23.00;99.90
22984;DHT22;11658;48.908;9.140;2023-05-07T11:41:13;23.30;99.90
22984;DHT22;11658;48.908;9.140;2023-05-07T11:43:53;23.40;99.90
22984;DHT22;11658;48.908;9.140;2023-05-07T11:46:20;23.40;99.90
22984;DHT22;11658;48.908;9.140;2023-05-07T11:48:46;23.70;99.90
22984;DHT22;11658;48.908;9.140;2023-05-07T11:51:12;23.80;99.90
22984;DHT22;11658;48.908;9.140;2023-05-07T11:53:40;24.00;99.90
22984;DHT22;11658;48.908;9.140;2023-05-07T11:56:10;24.00;99.90
22984;DHT22;11658;48.908;9.140;2023-05-07T11:58:36;24.00;99.90
22984;DHT22;11658;48.908;9.140;2023-05-07T12:01:02;24.10;99.90
22984;DHT22;11658;48.908;9.140;2023-05-07T12:03:27;24.10;99.90
22984;DHT22;11658;48.908;9.140;2023-05-07T12:05:53;24.60;99.90
22984;DHT22;11658;48.908;9.140;2023-05-07T12:08:20;24.70;99.90
22984;DHT22;11658;48.908;9.140;2023-05-07T12:10:48;24.80;99.90
22984;DHT22;11658;48.908;9.140;2023-05-07T12:13:18;24.80;99.90
22984;DHT22;11658;48.908;9.140;2023-05-07T12:15:44;24.90;99.90
22984;DHT22;11658;48.908;9.140;2023-05-07T12:18:11;25.00;99.90
22984;DHT22;11658;48.908;9.140;2023-05-07T12:20:38;25.00;99.90
22984;DHT22;11658;48.908;9.140;2023-05-07T12:23:04;24.80;99.90
22984;DHT22;11658;48.908;9.140;2023-05-07T12:25:37;24.60;99.90
22984;DHT22;11658;48.908;9.140;2023-05-07T12:28:03;24.60;99.90
22984;DHT22;11658;48.908;9.140;2023-05-07T12:30:39;24.60;99.90
22984;DHT22;11658;48.908;9.140;2023-05-07T12:33:05;24.70;99.90
22984;DHT22;11658;48.908;9.140;2023-05-07T12:35:42;24.60;99.90
22984;DHT22;11658;48.908;9.140;2023-05-07T12:38:09;24.70;99.90
22984;DHT22;11658;48.908;9.140;2023-05-07T12:40:42;24.70;99.90
22984;DHT22;11658;48.908;9.140;2023-05-07T12:43:18;24.80;99.90
22984;DHT22;11658;48.908;9.140;2023-05-07T12:45:45;25.00;99.90
22984;DHT22;11658;48.908;9.140;2023-05-07T12:48:12;25.00;99.90
22984;DHT22;11658;48.908;9.140;2023-05-07T12:50:38;25.10;99.90
22984;DHT22;11658;48.908;9.140;2023-05-07T12:53:05;25.30;99.90
22984;DHT22;11658;48.908;9.140;2023-05-07T12:55:31;25.50;99.90
22984;DHT22;11658;48.908;9.140;2023-05-07T12:58:01;25.60;99.90
22984;DHT22;11658;48.908;9.140;2023-05-07T13:00:34;25.50;99.90
22984;DHT22;11658;48.908;9.140;2023-05-07T13:03:00;25.50;99.90
22984;DHT22;11658;48.908;9.140;2023-05-07T13:05:26;25.00;99.90
22984;DHT22;11658;48.908;9.140;2023-05-07T13:07:55;24.60;99.90
22984;DHT22;11658;48.908;9.140;2023-05-07T13:10:22;24.30;99.90
22984;DHT22;11658;48.908;9.140;2023-05-07T13:12:49;23.80;99.90
22984;DHT22;11658;48.908;9.140;2023-05-07T13:15:14;23.40;99.90
22984;DHT22;11658;48.908;9.140;2023-05-07T13:17:41;23.00;99.90
22984;DHT22;11658;48.908;9.140;2023-05-07T13:20:07;22.60;99.90
22984;DHT22;11658;48.908;9.140;2023-05-07T13:22:33;22.20;99.90
22984;DHT22;11658;48.908;9.140;2023-05-07T13:24:59;21.90;99.90
22984;DHT22;11658;48.908;9.140;2023-05-07T13:27:24;21.70;99.90
22984;DHT22;11658;48.908;9.140;2023-05-07T13:29:51;21.50;99.90
22984;DHT22;11658;48.908;9.140;2023-05-07T13:32:17;21.50;99.90
22984;DHT22;11658;48.908;9.140;2023-05-07T13:34:42;21.40;99.90
22984;DHT22;11658;48.908;9.140;2023-05-07T13:37:08;21.30;99.90
22984;DHT22;11658;48.908;9.140;2023-05-07T13:39:33;21.10;99.90
22984;DHT22;11658;48.908;9.140;2023-05-07T13:41:59;20.90;99.90
22984;DHT22;11658;48.908;9.140;2023-05-07T13:44:26;20.60;99.90
22984;DHT22;11658;48.908;9.140;2023-05-07T13:46:52;20.30;99.90
22984;DHT22;11658;48.908;9.140;2023-05-07T13:49:17;19.80;99.90
22984;DHT22;11658;48.908;9.140;2023-05-07T13:51:43;19.50;99.90
22984;DHT22;11658;48.908;9.140;2023-05-07T13:54:08;19.20;99.90
22984;DHT22;11658;48.908;9.140;2023-05-07T13:56:34;19.00;99.90
22984;DHT22;11658;48.908;9.140;2023-05-07T13:59:00;18.90;99.90
22984;DHT22;11658;48.908;9.140;2023-05-07T14:01:26;18.80;99.90
22984;DHT22;11658;48.908;9.140;2023-05-07T14:03:52;18.90;99.90
22984;DHT22;11658;48.908;9.140;2023-05-07T14:06:17;18.90;99.90
22984;DHT22;11658;48.908;9.140;2023-05-07T14:08:43;19.10;99.90
22984;DHT22;11658;48.908;9.140;2023-05-07T14:11:08;19.00;99.90
22984;DHT22;11658;48.908;9.140;2023-05-07T14:13:34;18.70;99.90
22984;DHT22;11658;48.908;9.140;2023-05-07T14:16:00;18.50;99.90
22984;DHT22;11658;48.908;9.140;2023-05-07T14:18:26;18.30;99.90
22984;DHT22;11658;48.908;9.140;2023-05-07T14:20:52;18.10;99.90
22984;DHT22;11658;48.908;9.140;2023-05-07T14:23:17;18.20;99.90
22984;DHT22;11658;48.908;9.140;2023-05-07T14:25:45;18.20;99.90
22984;DHT22;11658;48.908;9.140;2023-05-07T14:28:13;18.10;99.90
22984;DHT22;11658;48.908;9.140;2023-05-07T14:30:38;18.00;99.90
22984;DHT22;11658;48.908;9.140;2023-05-07T14:33:04;17.90;99.90
22984;DHT22;11658;48.908;9.140;2023-05-07T14:35:30;17.90;99.90
22984;DHT22;11658;48.908;9.140;2023-05-07T14:37:55;17.90;99.90
22984;DHT22;11658;48.908;9.140;2023-05-07T14:40:21;17.90;99.90
22984;DHT22;11658;48.908;9.140;2023-05-07T14:42:46;17.80;99.90
22984;DHT22;11658;48.908;9.140;2023-05-07T14:45:12;17.70;99.90
22984;DHT22;11658;48.908;9.140;2023-05-07T14:47:38;17.60;99.90
22984;DHT22;11658;48.908;9.140;2023-05-07T14:50:04;17.50;99.90
22984;DHT22;11658;48.908;9.140;2023-05-07T14:52:29;17.60;99.90
22984;DHT22;11658;48.908;9.140;2023-05-07T14:54:55;17.80;99.90
22984;DHT22;11658;48.908;9.140;2023-05-07T14:57:21;17.90;99.90
22984;DHT22;11658;48.908;9.140;2023-05-07T14:59:46;17.90;99.90
22984;DHT22;11658;48.908;9.140;2023-05-07T15:02:12;17.90;99.90
22984;DHT22;11658;48.908;9.140;2023-05-07T15:04:38;17.80;99.90
22984;DHT22;11658;48.908;9.140;2023-05-07T15:07:14;17.80;99.90
22984;DHT22;11658;48.908;9.140;2023-05-07T15:09:43;18.00;99.90
22984;DHT22;11658;48.908;9.140;2023-05-07T15:12:09;17.90;99.90
22984;DHT22;11658;48.908;9.140;2023-05-07T15:14:35;17.80;99.90
22984;DHT22;11658;48.908;9.140;2023-05-07T15:17:00;17.80;99.90
22984;DHT22;11658;48.908;9.140;2023-05-07T15:19:26;17.60;99.90
22984;DHT22;11658;48.908;9.140;2023-05-07T15:21:58;17.70;99.90
22984;DHT22;11658;48.908;9.140;2023-05-07T15:24:25;17.70;99.90
22984;DHT22;11658;48.908;9.140;2023-05-07T15:26:52;17.80;99.90
22984;DHT22;11658;48.908;9.140;2023-05-07T15:29:17;17.80;99.90
22984;DHT22;11658;48.908;9.140;2023-05-07T15:31:44;17.70;99.90
22984;DHT22;11658;48.908;9.140;2023-05-07T15:34:09;17.70;99.90
22984;DHT22;11658;48.908;9.140;2023-05-07T15:36:35;17.50;99.90
22984;DHT22;11658;48.908;9.140;2023-05-07T15:39:01;17.20;99.90
22984;DHT22;11658;48.908;9.140;2023-05-07T15:41:28;17.30;99.90
22984;DHT22;11658;48.908;9.140;2023-05-07T15:43:53;17.30;99.90
22984;DHT22;11658;48.908;9.140;2023-05-07T15:46:20;17.10;99.90
22984;DHT22;11658;48.908;9.140;2023-05-07T15:48:46;17.10;99.90
22984;DHT22;11658;48.908;9.140;2023-05-07T15:51:12;17.00;99.90
22984;DHT22;11658;48.908;9.140;2023-05-07T15:53:37;17.10;99.90
22984;DHT22;11658;48.908;9.140;2023-05-07T15:56:04;17.20;99.90
22984;DHT22;11658;48.908;9.140;2023-05-07T15:58:30;17.30;99.90
22984;DHT22;11658;48.908;9.140;2023-05-07T16:00:55;17.20;99.90
22984;DHT22;11658;48.908;9.140;2023-05-07T16:03:22;17.30;99.90
22984;DHT22;11658;48.908;9.140;2023-05-07T16:05:48;17.20;99.90
22984;DHT22;11658;48.908;9.140;2023-05-07T16:08:14;17.10;99.90
22984;DHT22;11658;48.908;9.140;2023-05-07T16:10:39;17.10;99.90
22984;DHT22;11658;48.908;9.140;2023-05-07T16:13:06;16.80;99.90
22984;DHT22;11658;48.908;9.140;2023-05-07T16:15:31;16.80;99.90
22984;DHT22;11658;48.908;9.140;2023-05-07T16:17:57;16.90;99.90
22984;DHT22;11658;48.908;9.140;2023-05-07T16:20:27;16.90;99.90
22984;DHT22;11658;48.908;9.140;2023-05-07T16:22:55;16.80;99.90
22984;DHT22;11658;48.908;9.140;2023-05-07T16:25:21;16.80;99.90
22984;DHT22;11658;48.908;9.140;2023-05-07T16:27:47;17.00;99.90
22984;DHT22;11658;48.908;9.140;2023-05-07T16:30:12;17.00;99.90
22984;DHT22;11658;48.908;9.140;2023-05-07T16:32:38;16.80;99.90
22984;DHT22;11658;48.908;9.140;2023-05-07T16:35:04;17.00;99.90
22984;DHT22;11658;48.908;9.140;2023-05-07T16:37:32;17.10;99.90
22984;DHT22;11658;48.908;9.140;2023-05-07T16:40:00;17.10;99.90
22984;DHT22;11658;48.908;9.140;2023-05-07T16:42:26;17.10;99.90
22984;DHT22;11658;48.908;9.140;2023-05-07T16:44:52;17.00;99.90
22984;DHT22;11658;48.908;9.140;2023-05-07T16:47:19;17.10;99.90
22984;DHT22;11658;48.908;9.140;2023-05-07T16:49:45;17.10;99.90
22984;DHT22;11658;48.908;9.140;2023-05-07T16:52:11;17.10;99.90
22984;DHT22;11658;48.908;9.140;2023-05-07T16:54:36;17.10;99.90
22984;DHT22;11658;48.908;9.140;2023-05-07T16:57:02;17.10;99.90
22984;DHT22;11658;48.908;9.140;2023-05-07T16:59:28;17.10;99.90
22984;DHT22;11658;48.908;9.140;2023-05-07T17:01:56;17.10;99.90
22984;DHT22;11658;48.908;9.140;2023-05-07T17:04:22;17.00;99.90
22984;DHT22;11658;48.908;9.140;2023-05-07T17:06:48;16.90;99.90
22984;DHT22;11658;48.908;9.140;2023-05-07T17:09:13;16.80;99.90
22984;DHT22;11658;48.908;9.140;2023-05-07T17:11:39;16.70;99.90
22984;DHT22;11658;48.908;9.140;2023-05-07T17:14:04;16.80;99.90
22984;DHT22;11658;48.908;9.140;2023-05-07T17:16:30;17.00;99.90
22984;DHT22;11658;48.908;9.140;2023-05-07T17:18:56;17.20;99.90
22984;DHT22;11658;48.908;9.140;2023-05-07T17:21:21;17.10;99.90
22984;DHT22;11658;48.908;9.140;2023-05-07T17:23:47;17.10;99.90
22984;DHT22;11658;48.908;9.140;2023-05-07T17:26:13;17.00;99.90
22984;DHT22;11658;48.908;9.140;2023-05-07T17:28:39;17.00;99.90
22984;DHT22;11658;48.908;9.140;2023-05-07T17:31:05;16.70;99.90
22984;DHT22;11658;48.908;9.140;2023-05-07T17:33:30;16.40;99.90
22984;DHT22;11658;48.908;9.140;2023-05-07T17:35:56;16.20;99.90
22984;DHT22;11658;48.908;9.140;2023-05-07T17:38:22;16.00;99.90
22984;DHT22;11658;48.908;9.140;2023-05-07T17:40:47;16.10;99.90
22984;DHT22;11658;48.908;9.140;2023-05-07T17:43:14;16.10;99.90
22984;DHT22;11658;48.908;9.140;2023-05-07T17:45:40;16.20;99.90
22984;DHT22;11658;48.908;9.140;2023-05-07T17:48:06;16.20;99.90
22984;DHT22;11658;48.908;9.140;2023-05-07T17:50:32;16.40;99.90
22984;DHT22;11658;48.908;9.140;2023-05-07T17:52:57;16.20;99.90
22984;DHT22;11658;48.908;9.140;2023-05-07T17:55:23;16.30;99.90
22984;DHT22;11658;48.908;9.140;2023-05-07T17:57:48;16.30;99.90
22984;DHT22;11658;48.908;9.140;2023-05-07T18:00:14;16.20;99.90
22984;DHT22;11658;48.908;9.140;2023-05-07T18:02:40;16.10;99.90
22984;DHT22;11658;48.908;9.140;2023-05-07T18:05:07;16.10;99.90
22984;DHT22;11658;48.908;9.140;2023-05-07T18:07:33;16.00;99.90
22984;DHT22;11658;48.908;9.140;2023-05-07T18:09:59;15.90;99.90
22984;DHT22;11658;48.908;9.140;2023-05-07T18:12:25;15.80;99.90
22984;DHT22;11658;48.908;9.140;2023-05-07T18:14:50;15.70;99.90
22984;DHT22;11658;48.908;9.140;2023-05-07T18:17:16;15.60;99.90
22984;DHT22;11658;48.908;9.140;2023-05-07T18:19:42;15.50;99.90
22984;DHT22;11658;48.908;9.140;2023-05-07T18:22:08;15.40;99.90
22984;DHT22;11658;48.908;9.140;2023-05-07T18:24:33;15.50;99.90
22984;DHT22;11658;48.908;9.140;2023-05-07T18:26:59;15.60;99.90
22984;DHT22;11658;48.908;9.140;2023-05-07T18:29:24;15.60;99.90
22984;DHT22;11658;48.908;9.140;2023-05-07T18:31:50;15.50;99.90
22984;DHT22;11658;48.908;9.140;2023-05-07T18:34:16;15.60;99.90
22984;DHT22;11658;48.908;9.140;2023-05-07T18:36:42;15.60;99.90
22984;DHT22;11658;48.908;9.140;2023-05-07T18:39:07;15.70;99.90
22984;DHT22;11658;48.908;9.140;2023-05-07T18:41:34;15.70;99.90
22984;DHT22;11658;48.908;9.140;2023-05-07T18:44:00;15.60;99.90
22984;DHT22;11658;48.908;9.140;2023-05-07T18:46:25;15.70;99.90
22984;DHT22;11658;48.908;9.140;2023-05-07T18:48:53;15.70;99.90
22984;DHT22;11658;48.908;9.140;2023-05-07T18:51:19;15.60;99.90
22984;DHT22;11658;48.908;9.140;2023-05-07T18:53:44;15.60;99.90
22984;DHT22;11658;48.908;9.140;2023-05-07T18:56:10;15.60;99.90
22984;DHT22;11658;48.908;9.140;2023-05-07T18:58:36;15.60;99.90
22984;DHT22;11658;48.908;9.140;2023-05-07T19:01:02;15.50;99.90
22984;DHT22;11658;48.908;9.140;2023-05-07T19:03:35;15.50;99.90
22984;DHT22;11658;48.908;9.140;2023-05-07T19:06:00;15.50;99.90
22984;DHT22;11658;48.908;9.140;2023-05-07T19:08:26;15.50;99.90
22984;DHT22;11658;48.908;9.140;2023-05-07T19:10:54;15.60;99.90
22984;DHT22;11658;48.908;9.140;2023-05-07T19:13:20;15.60;99.90
22984;DHT22;11658;48.908;9.140;2023-05-07T19:15:47;15.50;99.90
22984;DHT22;11658;48.908;9.140;2023-05-07T19:18:13;15.40;99.90
22984;DHT22;11658;48.908;9.140;2023-05-07T19:20:38;15.40;99.90
22984;DHT22;11658;48.908;9.140;2023-05-07T19:23:04;15.40;99.90
22984;DHT22;11658;48.908;9.140;2023-05-07T19:25:33;15.40;99.90
22984;DHT22;11658;48.908;9.140;2023-05-07T19:27:59;15.40;99.90
22984;DHT22;11658;48.908;9.140;2023-05-07T19:30:25;15.50;99.90
22984;DHT22;11658;48.908;9.140;2023-05-07T19:32:50;15.50;99.90
22984;DHT22;11658;48.908;9.140;2023-05-07T19:35:16;15.50;99.90
22984;DHT22;11658;48.908;9.140;2023-05-07T19:37:42;15.50;99.90
22984;DHT22;11658;48.908;9.140;2023-05-07T19:40:08;15.60;99.90
22984;DHT22;11658;48.908;9.140;2023-05-07T19:42:33;15.50;99.90
22984;DHT22;11658;48.908;9.140;2023-05-07T19:44:59;15.50;99.90
22984;DHT22;11658;48.908;9.140;2023-05-07T19:47:25;15.50;99.90
22984;DHT22;11658;48.908;9.140;2023-05-07T19:49:51;15.50;99.90
22984;DHT22;11658;48.908;9.140;2023-05-07T19:52:16;15.50;99.90
22984;DHT22;11658;48.908;9.140;2023-05-07T19:54:42;15.50;99.90
22984;DHT22;11658;48.908;9.140;2023-05-07T19:57:07;15.50;99.90
22984;DHT22;11658;48.908;9.140;2023-05-07T19:59:33;15.50;99.90
22984;DHT22;11658;48.908;9.140;2023-05-07T20:01:59;15.50;99.90
22984;DHT22;11658;48.908;9.140;2023-05-07T20:04:24;15.50;99.90
22984;DHT22;11658;48.908;9.140;2023-05-07T20:06:55;15.50;99.90
22984;DHT22;11658;48.908;9.140;2023-05-07T20:09:21;15.40;99.90
22984;DHT22;11658;48.908;9.140;2023-05-07T20:11:46;15.40;99.90
22984;DHT22;11658;48.908;9.140;2023-05-07T20:14:12;15.30;99.90
22984;DHT22;11658;48.908;9.140;2023-05-07T20:16:37;15.20;99.90
22984;DHT22;11658;48.908;9.140;2023-05-07T20:19:03;15.20;99.90
22984;DHT22;11658;48.908;9.140;2023-05-07T20:21:29;15.20;99.90
22984;DHT22;11658;48.908;9.140;2023-05-07T20:23:54;15.20;99.90
22984;DHT22;11658;48.908;9.140;2023-05-07T20:26:21;15.20;99.90
22984;DHT22;11658;48.908;9.140;2023-05-07T20:28:46;15.20;99.90
22984;DHT22;11658;48.908;9.140;2023-05-07T20:31:12;15.30;99.90
22984;DHT22;11658;48.908;9.140;2023-05-07T20:33:38;15.40;99.90
22984;DHT22;11658;48.908;9.140;2023-05-07T20:36:06;15.40;99.90
22984;DHT22;11658;48.908;9.140;2023-05-07T20:38:32;15.40;99.90
22984;DHT22;11658;48.908;9.140;2023-05-07T20:41:07;15.40;99.90